createdAt,value
2023-05-18T00:04:08.223Z,8.90
2023-05-18T00:08:27.218Z,8.80
2023-05-18T00:12:45.412Z,8.70
2023-05-18T00:17:03.341Z,8.60
2023-05-18T00:21:22.774Z,8.60
2023-05-18T00:25:42.535Z,8.50
2023-05-18T00:30:00.669Z,8.40
2023-05-18T00:34:18.573Z,8.40
2023-05-18T00:38:38.090Z,8.30
2023-05-18T00:42:57.920Z,8.20
2023-05-18T00:47:15.871Z,8.20
2023-05-18T00:51:35.618Z,8.10
2023-05-18T00:55:56.816Z,8.10
2023-05-18T01:00:17.386Z,8.00
2023-05-18T01:04:38.090Z,7.90
2023-05-18T01:08:58.413Z,7.80
2023-05-18T01:13:29.173Z,7.80
2023-05-18T01:18:00.896Z,7.70
2023-05-18T01:22:34.723Z,7.60
2023-05-18T01:26:57.825Z,7.50
2023-05-18T01:31:18.103Z,7.40
2023-05-18T01:35:36.746Z,7.40
2023-05-18T01:39:53.939Z,7.30
2023-05-18T01:44:20.197Z,7.30
2023-05-18T01:48:41.299Z,7.20
2023-05-18T01:53:07.331Z,7.10
2023-05-18T01:57:29.171Z,7.10
2023-05-18T02:01:50.178Z,7.00
2023-05-18T02:06:19.124Z,7.00
2023-05-18T02:10:37.486Z,6.90
2023-05-18T02:14:58.505Z,6.90
2023-05-18T02:19:18.474Z,6.80
2023-05-18T02:23:37.562Z,6.70
2023-05-18T02:27:55.706Z,6.70
2023-05-18T02:32:14.488Z,6.60
2023-05-18T02:36:37.444Z,6.60
2023-05-18T02:40:56.161Z,6.50
2023-05-18T02:45:13.857Z,6.50
2023-05-18T02:49:35.150Z,6.40
2023-05-18T02:53:58.063Z,6.40
2023-05-18T02:58:17.458Z,6.30
2023-05-18T03:03:00.672Z,6.30
2023-05-18T03:07:21.381Z,6.20
2023-05-18T03:11:40.633Z,6.20
2023-05-18T03:16:00.402Z,6.10
2023-05-18T03:20:19.924Z,6.10
2023-05-18T03:24:41.240Z,6.00
2023-05-18T03:29:05.945Z,6.00
2023-05-18T03:33:24.784Z,6.00
2023-05-18T03:37:43.547Z,6.00
2023-05-18T03:42:00.942Z,6.00
2023-05-18T03:46:20.484Z,6.20
2023-05-18T03:50:40.846Z,6.30
2023-05-18T03:54:58.228Z,6.60
2023-05-18T03:59:16.382Z,6.90
2023-05-18T04:03:36.142Z,7.30
2023-05-18T04:07:58.529Z,7.70
2023-05-18T04:12:16.606Z,8.10
2023-05-18T04:16:34.707Z,8.60
2023-05-18T04:20:55.306Z,9.10
2023-05-18T04:25:14.345Z,9.70
2023-05-18T04:29:35.014Z,10.20
2023-05-18T04:33:54.841Z,10.70
2023-05-18T04:38:16.386Z,11.30
2023-05-18T04:42:37.587Z,11.80
2023-05-18T04:46:57.323Z,12.40
2023-05-18T04:51:21.487Z,12.90
2023-05-18T04:55:42.931Z,13.30
2023-05-18T05:00:08.553Z,13.80
2023-05-18T05:04:26.957Z,14.20
2023-05-18T05:08:45.059Z,14.50
2023-05-18T05:13:04.417Z,15.00
2023-05-18T05:17:24.604Z,15.50
2023-05-18T05:21:42.321Z,16.00
2023-05-18T05:26:00.509Z,16.50
2023-05-18T05:30:22.919Z,17.00
2023-05-18T05:34:45.559Z,17.40
2023-05-18T05:39:04.161Z,17.90
2023-05-18T05:43:21.740Z,18.20
2023-05-18T05:47:41.272Z,18.30
2023-05-18T05:52:01.106Z,18.40
2023-05-18T05:56:19.117Z,18.50
2023-05-18T06:00:37.144Z,18.70
2023-05-18T06:04:59.491Z,19.00
2023-05-18T06:09:19.499Z,19.10
2023-05-18T06:13:37.276Z,19.00
2023-05-18T06:17:55.644Z,18.90
2023-05-18T06:22:15.518Z,19.10
2023-05-18T06:26:46.896Z,19.40
2023-05-18T06:31:04.982Z,19.70
2023-05-18T06:35:45.130Z,19.80
2023-05-18T06:40:07.311Z,19.70
2023-05-18T06:44:26.959Z,19.90
2023-05-18T06:49:00.294Z,20.20
2023-05-18T06:53:18.306Z,20.60
2023-05-18T06:57:38.191Z,20.90
2023-05-18T07:01:58.074Z,21.20
2023-05-18T07:06:18.673Z,21.40
2023-05-18T07:10:36.663Z,21.60
2023-05-18T07:14:58.445Z,21.70
2023-05-18T07:19:16.008Z,21.90
2023-05-18T07:23:33.811Z,22.20
2023-05-18T07:27:52.255Z,22.40
2023-05-18T07:32:11.322Z,22.50
2023-05-18T07:36:31.265Z,22.80
2023-05-18T07:40:49.061Z,23.00
2023-05-18T07:45:08.675Z,23.30
2023-05-18T07:49:29.667Z,23.40
2023-05-18T07:53:49.654Z,23.50
2023-05-18T07:58:07.524Z,23.30
2023-05-18T08:02:25.810Z,22.90
2023-05-18T08:06:45.569Z,22.40
2023-05-18T08:11:05.108Z,22.00
2023-05-18T08:15:22.939Z,22.00
2023-05-18T08:19:42.105Z,22.00
2023-05-18T08:24:04.104Z,21.80
2023-05-18T08:28:23.171Z,21.30
2023-05-18T08:32:41.293Z,20.90
2023-05-18T08:37:00.187Z,20.90
2023-05-18T08:41:22.736Z,21.20
2023-05-18T08:45:47.586Z,21.50
2023-05-18T08:50:07.477Z,21.80
2023-05-18T08:54:28.681Z,22.20
2023-05-18T08:58:51.455Z,23.00
2023-05-18T09:03:09.917Z,23.20
2023-05-18T09:07:28.610Z,23.60
2023-05-18T09:11:48.824Z,23.40
2023-05-18T09:16:09.045Z,22.90
2023-05-18T09:20:29.189Z,22.50
2023-05-18T09:24:50.217Z,22.00
2023-05-18T09:29:17.908Z,21.90
2023-05-18T09:33:39.747Z,22.10
2023-05-18T09:37:58.598Z,22.30
2023-05-18T09:42:16.447Z,22.50
2023-05-18T09:46:37.423Z,22.60
2023-05-18T09:51:00.857Z,23.10
2023-05-18T09:55:21.109Z,23.40
2023-05-18T09:59:41.404Z,23.00
2023-05-18T10:04:05.037Z,22.40
2023-05-18T10:08:24.321Z,21.80
2023-05-18T10:12:45.422Z,21.10
2023-05-18T10:17:15.182Z,20.50
2023-05-18T10:21:37.397Z,20.40
2023-05-18T10:25:59.320Z,20.40
2023-05-18T10:30:18.386Z,20.80
2023-05-18T10:34:37.501Z,21.70
2023-05-18T10:38:58.631Z,22.30
2023-05-18T10:43:24.002Z,22.20
2023-05-18T10:47:44.622Z,21.60
2023-05-18T10:52:04.850Z,21.00
2023-05-18T10:56:26.255Z,20.40
2023-05-18T11:00:51.418Z,20.20
2023-05-18T11:05:11.016Z,20.30
2023-05-18T11:09:32.065Z,20.20
2023-05-18T11:13:51.481Z,20.40
2023-05-18T11:18:18.207Z,21.10
2023-05-18T11:22:48.967Z,22.00
2023-05-18T11:27:15.911Z,22.70
2023-05-18T11:31:45.269Z,22.90
2023-05-18T11:36:07.322Z,23.00
2023-05-18T11:40:46.756Z,23.10
2023-05-18T11:45:10.164Z,22.80
2023-05-18T11:49:29.833Z,22.20
2023-05-18T11:53:50.055Z,21.90
2023-05-18T11:58:10.706Z,21.50
2023-05-18T12:02:33.950Z,21.20
2023-05-18T12:06:53.024Z,20.90
2023-05-18T12:11:15.187Z,20.60
2023-05-18T12:15:35.393Z,20.40
2023-05-18T12:19:55.356Z,20.20
2023-05-18T12:24:13.445Z,20.10
2023-05-18T12:28:32.841Z,20.00
2023-05-18T12:32:54.529Z,19.80
2023-05-18T12:37:13.661Z,19.80
2023-05-18T12:41:32.149Z,19.70
2023-05-18T12:45:51.254Z,19.50
2023-05-18T12:50:12.206Z,19.40
2023-05-18T12:54:32.996Z,19.30
2023-05-18T12:59:00.500Z,19.20
2023-05-18T13:03:23.083Z,18.90
2023-05-18T13:07:42.810Z,18.50
2023-05-18T13:12:07.838Z,18.30
2023-05-18T13:16:26.879Z,18.00
2023-05-18T13:20:51.136Z,17.70
2023-05-18T13:25:09.692Z,17.40
2023-05-18T13:29:27.135Z,17.40
2023-05-18T13:33:45.382Z,17.50
2023-05-18T13:38:05.262Z,17.70
2023-05-18T13:42:24.453Z,17.90
2023-05-18T13:46:42.451Z,18.20
2023-05-18T13:51:00.608Z,18.30
2023-05-18T13:55:20.283Z,18.20
2023-05-18T13:59:39.933Z,18.00
2023-05-18T14:03:57.758Z,17.90
2023-05-18T14:08:15.989Z,17.90
2023-05-18T14:12:35.750Z,17.90
2023-05-18T14:16:55.721Z,17.80
2023-05-18T14:21:12.910Z,17.60
2023-05-18T14:25:30.969Z,17.40
2023-05-18T14:29:51.080Z,17.20
2023-05-18T14:34:10.208Z,17.00
2023-05-18T14:38:28.286Z,17.00
2023-05-18T14:42:46.434Z,17.00
2023-05-18T14:47:06.801Z,17.10
2023-05-18T14:51:25.681Z,17.20
2023-05-18T14:55:43.801Z,17.20
2023-05-18T15:00:01.580Z,17.10
2023-05-18T15:04:22.600Z,17.10
2023-05-18T15:08:41.116Z,17.20
2023-05-18T15:12:58.888Z,17.40
2023-05-18T15:17:17.919Z,17.40
2023-05-18T15:21:36.333Z,17.40
2023-05-18T15:25:56.187Z,17.20
2023-05-18T15:30:14.263Z,17.00
2023-05-18T15:34:33.636Z,16.90
2023-05-18T15:38:54.749Z,16.80
2023-05-18T15:43:14.504Z,16.60
2023-05-18T15:47:32.538Z,16.40
2023-05-18T15:51:50.496Z,16.20
2023-05-18T15:56:10.883Z,16.10
2023-05-18T16:00:30.370Z,16.00
2023-05-18T16:04:47.949Z,15.90
2023-05-18T16:09:05.986Z,15.90
2023-05-18T16:13:27.256Z,15.80
2023-05-18T16:17:45.043Z,15.80
2023-05-18T16:22:03.221Z,15.90
2023-05-18T16:26:22.067Z,16.00
2023-05-18T16:30:40.857Z,16.10
2023-05-18T16:35:00.376Z,16.10
2023-05-18T16:39:18.419Z,16.10
2023-05-18T16:43:36.608Z,16.00
2023-05-18T16:47:56.231Z,15.90
2023-05-18T16:52:18.326Z,15.90
2023-05-18T16:56:36.934Z,15.90
2023-05-18T17:00:55.027Z,16.00
2023-05-18T17:05:17.075Z,16.00
2023-05-18T17:09:40.147Z,16.10
2023-05-18T17:13:59.931Z,16.10
2023-05-18T17:18:19.368Z,16.10
2023-05-18T17:22:38.943Z,16.00
2023-05-18T17:26:58.649Z,15.90
2023-05-18T17:31:17.839Z,15.80
2023-05-18T17:35:37.620Z,15.70
2023-05-18T17:39:57.296Z,15.70
2023-05-18T17:44:17.383Z,15.60
2023-05-18T17:48:35.033Z,15.50
2023-05-18T17:52:53.002Z,15.30
2023-05-18T17:57:12.422Z,15.20
2023-05-18T18:01:33.400Z,15.10
2023-05-18T18:05:53.563Z,15.00
2023-05-18T18:10:12.006Z,14.80
2023-05-18T18:14:30.681Z,14.70
2023-05-18T18:18:50.765Z,14.50
2023-05-18T18:23:08.724Z,14.40
2023-05-18T18:27:26.454Z,14.30
2023-05-18T18:31:46.211Z,14.20
2023-05-18T18:36:07.687Z,14.00
2023-05-18T18:40:26.955Z,13.90
2023-05-18T18:44:44.848Z,13.80
2023-05-18T18:49:04.842Z,13.70
2023-05-18T18:53:24.396Z,13.70
2023-05-18T18:57:42.920Z,13.60
2023-05-18T19:02:00.290Z,13.60
2023-05-18T19:06:20.290Z,13.60
2023-05-18T19:10:39.496Z,13.60
2023-05-18T19:14:57.457Z,13.60
2023-05-18T19:19:15.770Z,13.50
2023-05-18T19:23:34.985Z,13.50
2023-05-18T19:27:55.372Z,13.50
2023-05-18T19:32:13.182Z,13.50
2023-05-18T19:36:31.141Z,13.40
2023-05-18T19:40:50.389Z,13.40
2023-05-18T19:45:10.682Z,13.40
2023-05-18T19:49:29.708Z,13.30
2023-05-18T19:53:49.507Z,13.30
2023-05-18T19:58:08.722Z,13.40
2023-05-18T20:02:28.508Z,13.40
2023-05-18T20:06:46.452Z,13.40
2023-05-18T20:11:04.742Z,13.50
2023-05-18T20:15:23.929Z,13.50
2023-05-18T20:19:50.496Z,13.50
2023-05-18T20:24:07.947Z,13.40
2023-05-18T20:28:26.991Z,13.30
2023-05-18T20:32:45.434Z,13.30
2023-05-18T20:37:05.894Z,13.20
2023-05-18T20:41:23.547Z,13.10
2023-05-18T20:45:41.513Z,13.00
2023-05-18T20:50:00.783Z,13.00
2023-05-18T20:54:21.493Z,12.90
2023-05-18T20:58:42.618Z,12.90
2023-05-18T21:03:04.289Z,12.80
2023-05-18T21:07:25.258Z,12.80
2023-05-18T21:11:47.810Z,12.80
2023-05-18T21:16:08.467Z,12.70
2023-05-18T21:20:27.554Z,12.80
2023-05-18T21:24:46.913Z,12.70
2023-05-18T21:29:06.581Z,12.70
2023-05-18T21:33:24.854Z,12.70
2023-05-18T21:37:42.682Z,12.70
2023-05-18T21:42:02.610Z,12.60
2023-05-18T21:46:22.134Z,12.60
2023-05-18T21:50:40.339Z,12.60
2023-05-18T21:54:58.022Z,12.50
2023-05-18T21:59:17.588Z,12.50
2023-05-18T22:03:37.175Z,12.40
2023-05-18T22:07:55.218Z,12.50
2023-05-18T22:12:13.272Z,12.40
2023-05-18T22:16:33.260Z,12.40
2023-05-18T22:20:52.511Z,12.30
2023-05-18T22:25:11.104Z,12.30
2023-05-18T22:29:28.653Z,12.30
2023-05-18T22:33:48.600Z,12.30
2023-05-18T22:38:10.467Z,12.30
2023-05-18T22:42:28.955Z,12.30
2023-05-18T22:46:47.289Z,12.20
2023-05-18T22:51:07.100Z,12.20
2023-05-18T22:55:26.085Z,12.20
2023-05-18T22:59:44.119Z,12.10
2023-05-18T23:04:03.146Z,12.20
2023-05-18T23:08:21.558Z,12.10
2023-05-18T23:12:41.644Z,12.10
2023-05-18T23:16:59.486Z,12.10
2023-05-18T23:21:17.641Z,12.10
2023-05-18T23:25:37.052Z,12.10
2023-05-18T23:29:56.874Z,12.10
2023-05-18T23:34:15.101Z,12.10
2023-05-18T23:38:37.755Z,12.00
2023-05-18T23:42:59.301Z,12.00
2023-05-18T23:47:19.070Z,12.00
2023-05-18T23:51:38.770Z,12.00
2023-05-18T23:55:59.699Z,11.90
